Charlevoix, MI

8:24 AM EDT on August 27, 2016 (GMT -0400)
1.5 W Ironton | | Change Station

Elev 750 ft 45.26 °N, 85.22 °W | Updated 1 second ago

Mostly Cloudy
Mostly Cloudy
61.1 °F
Feels Like 61.1 °F
N
1.0
Wind Variable Wind from East
Gusts 1.0 mph

Today
High -- | Low -- °F
--% Chance of Precip.
Yesterday
High -- | Low -- °F
Precip. -- in
Pressure 30.21 in
Visibility 10.0 miles
Clouds Mostly Cloudy 9000 ft
Dew Point 59 °F
Humidity 94%
Rainfall 0.00 in
Snow Depth Not available.
6:57 AM 8:26 PM
Waning Crescent, 25% visible
METAR KCVX 271214Z AUTO 12003KT 10SM BKN090 17/15 A3021 RMK AO2 T01680154
Pressure 30.21 in
Visibility 10.0 miles
Clouds Mostly Cloudy 9000 ft
Dew Point 59 °F
Humidity 94%
Rainfall 0.00 in
Snow Depth Not available.
6:57 AM 8:26 PM
Waning Crescent, 25% visible
METAR KCVX 271214Z AUTO 12003KT 10SM BKN090 17/15 A3021 RMK AO2 T01680154

10-Day Weather Forecast

Almanac

Astronomy

Aug. 27, 2016 Rise Set
Actual Time
Civil Twilight
Nautical Twilight
Astronomical Twilight
Moon
Length of Visible Light
Length of Day
Tomorrow will be .
, % of the Moon is Illuminated

Today's Extremes

State Highs State Lows

Community

WunderPhotos

Upload Photos

1,935,325 photos uploaded!

WunderBlog® & News

Nearby

Air Quality

  Air Quality AQ Index Pollutant
Not available.

Snow Depth

Station Depth Elevation

Earthquake Activity

City Distance Mag. Time & Date
Minimum magnitude displayed is 2.5.

Coastal Water Temperatures

Place Temperature

Stations

Nearby Weather Stations

Station Location Temp. Windchill Dew Point Humidity Wind Precip. Elev Updated Type
                   

Watches & Warnings

There are currently no watches in effect.